createdAt,value
2018-12-31T00:01:09.444Z,78.61
2018-12-31T00:03:38.856Z,78.40
2018-12-31T00:06:07.958Z,78.46
2018-12-31T00:08:37.364Z,78.44
2018-12-31T00:11:06.877Z,78.41
2018-12-31T00:13:36.424Z,78.39
2018-12-31T00:16:05.819Z,78.22
2018-12-31T00:18:35.265Z,78.26
2018-12-31T00:21:04.635Z,77.94
2018-12-31T00:23:34.152Z,77.66
2018-12-31T00:26:03.335Z,77.65
2018-12-31T00:28:32.914Z,77.26
2018-12-31T00:31:02.534Z,77.60
2018-12-31T00:33:31.733Z,77.70
2018-12-31T00:36:00.924Z,77.52
2018-12-31T00:38:30.050Z,77.38
2018-12-31T00:40:59.234Z,77.37
2018-12-31T00:43:28.641Z,77.04
2018-12-31T00:45:57.738Z,76.81
2018-12-31T00:48:26.885Z,76.85
2018-12-31T00:50:56.311Z,76.82
2018-12-31T00:53:25.693Z,76.70
2018-12-31T00:55:54.823Z,76.79
2018-12-31T00:58:25.118Z,76.56
2018-12-31T01:00:54.737Z,76.69
2018-12-31T01:03:24.360Z,76.23
2018-12-31T01:05:53.455Z,75.85
2018-12-31T01:08:22.589Z,75.85
2018-12-31T01:10:51.588Z,75.44
2018-12-31T01:13:21.193Z,75.51
2018-12-31T01:15:50.393Z,75.47
2018-12-31T01:18:19.570Z,75.55
2018-12-31T01:20:48.787Z,75.54
2018-12-31T01:23:18.271Z,75.13
2018-12-31T01:25:47.773Z,74.81
2018-12-31T01:28:17.193Z,74.61
2018-12-31T01:30:46.481Z,74.30
2018-12-31T01:33:15.669Z,74.69
2018-12-31T01:35:44.793Z,74.94
2018-12-31T01:38:14.202Z,74.88
2018-12-31T01:40:43.620Z,74.34
2018-12-31T01:43:12.801Z,74.30
2018-12-31T01:45:42.240Z,74.03
2018-12-31T01:48:11.396Z,74.26
2018-12-31T01:50:40.515Z,74.19
2018-12-31T01:53:09.649Z,74.57
2018-12-31T01:55:38.833Z,74.21
2018-12-31T01:58:08.353Z,74.09
2018-12-31T02:00:38.013Z,73.66
2018-12-31T02:03:07.527Z,74.11
2018-12-31T02:05:36.907Z,73.99
2018-12-31T02:08:06.419Z,73.85
2018-12-31T02:10:35.619Z,74.02
2018-12-31T02:13:05.601Z,74.53
2018-12-31T02:15:34.900Z,74.33
2018-12-31T02:18:04.427Z,74.37
2018-12-31T02:20:33.542Z,73.93
2018-12-31T02:23:03.037Z,74.04
2018-12-31T02:25:32.479Z,73.79
2018-12-31T02:28:01.818Z,73.91
2018-12-31T02:30:31.285Z,74.12
2018-12-31T02:33:00.690Z,73.55
2018-12-31T02:35:30.135Z,73.88
2018-12-31T02:37:59.296Z,74.07
2018-12-31T02:40:28.495Z,73.86
2018-12-31T02:42:57.684Z,73.62
2018-12-31T02:45:26.838Z,74.13
2018-12-31T02:47:56.256Z,73.69
2018-12-31T02:50:25.705Z,73.68
2018-12-31T02:52:55.148Z,73.04
2018-12-31T02:55:24.245Z,72.33
2018-12-31T02:57:53.365Z,72.79
2018-12-31T03:00:22.881Z,72.87
2018-12-31T03:02:52.044Z,72.75
2018-12-31T03:05:21.454Z,73.22
2018-12-31T03:07:50.699Z,73.22
2018-12-31T03:10:19.826Z,72.91
2018-12-31T03:12:49.358Z,72.44
2018-12-31T03:15:18.718Z,72.63
2018-12-31T03:17:48.322Z,73.05
2018-12-31T03:20:17.664Z,72.58
2018-12-31T03:22:47.306Z,72.31
2018-12-31T03:25:16.546Z,72.74
2018-12-31T03:27:45.679Z,72.92
2018-12-31T03:30:15.554Z,72.51
2018-12-31T03:32:45.000Z,73.25
2018-12-31T03:35:15.247Z,72.86
2018-12-31T03:37:44.806Z,72.90
2018-12-31T03:40:14.167Z,71.89
2018-12-31T03:42:43.273Z,72.54
2018-12-31T03:45:12.710Z,72.25
2018-12-31T03:47:42.101Z,72.02
2018-12-31T03:50:11.461Z,72.24
2018-12-31T03:52:40.660Z,71.78
2018-12-31T03:55:09.797Z,71.66
2018-12-31T03:57:39.212Z,72.24
2018-12-31T04:00:08.777Z,71.77
2018-12-31T04:02:38.214Z,71.92
2018-12-31T04:05:07.323Z,71.53
2018-12-31T04:07:36.922Z,72.22
2018-12-31T04:10:06.776Z,72.79
2018-12-31T04:12:36.142Z,72.10
2018-12-31T04:15:06.934Z,72.34
2018-12-31T04:17:36.050Z,72.47
2018-12-31T04:20:06.496Z,72.31
2018-12-31T04:22:35.674Z,72.21
2018-12-31T04:25:05.952Z,72.62
2018-12-31T04:27:35.870Z,72.14
2018-12-31T04:30:06.556Z,72.59
2018-12-31T04:32:36.022Z,71.88
2018-12-31T04:35:06.694Z,72.35
2018-12-31T04:37:35.792Z,72.34
2018-12-31T04:40:05.423Z,71.91
2018-12-31T04:42:34.904Z,72.26
2018-12-31T04:45:04.718Z,72.35
2018-12-31T04:47:33.924Z,72.21
2018-12-31T04:50:03.380Z,72.20
2018-12-31T04:52:32.509Z,72.33
2018-12-31T04:55:01.643Z,72.79
2018-12-31T04:57:30.892Z,72.87
2018-12-31T05:00:00.206Z,73.23
2018-12-31T05:02:29.325Z,73.41
2018-12-31T05:04:58.505Z,73.26
2018-12-31T05:07:27.700Z,73.47
2018-12-31T05:09:57.135Z,73.83
2018-12-31T05:12:26.326Z,73.92
2018-12-31T05:14:55.531Z,74.94
2018-12-31T05:17:24.933Z,74.39
2018-12-31T05:19:54.446Z,74.81
2018-12-31T05:22:23.778Z,74.96
2018-12-31T05:24:52.917Z,75.16
2018-12-31T05:27:22.097Z,75.67
2018-12-31T05:29:51.229Z,76.05
2018-12-31T05:32:20.733Z,75.89
2018-12-31T05:34:50.402Z,75.95
2018-12-31T05:37:19.826Z,76.13
2018-12-31T05:39:49.535Z,75.89
2018-12-31T05:42:18.952Z,76.00
2018-12-31T05:44:48.328Z,76.00
2018-12-31T05:47:17.564Z,75.72
2018-12-31T05:49:46.729Z,76.15
2018-12-31T05:52:16.134Z,76.37
2018-12-31T05:54:45.533Z,76.48
2018-12-31T05:57:14.676Z,76.56
2018-12-31T05:59:44.144Z,76.77
2018-12-31T06:02:13.630Z,76.98
2018-12-31T06:04:43.093Z,76.95
2018-12-31T06:07:12.238Z,77.02
2018-12-31T06:09:41.618Z,77.43
2018-12-31T06:12:10.791Z,77.30
2018-12-31T06:14:40.006Z,77.11
2018-12-31T06:17:09.395Z,77.05
2018-12-31T06:19:38.823Z,76.88
2018-12-31T06:22:08.011Z,77.26
2018-12-31T06:24:37.697Z,77.09
2018-12-31T06:27:07.133Z,77.29
2018-12-31T06:29:36.504Z,77.21
2018-12-31T06:32:06.087Z,77.23
2018-12-31T06:34:35.497Z,77.32
2018-12-31T06:37:05.965Z,77.30
2018-12-31T06:39:35.390Z,77.45
2018-12-31T06:42:05.629Z,77.48
2018-12-31T06:44:34.768Z,77.35
2018-12-31T06:47:04.257Z,77.70
2018-12-31T06:49:33.415Z,78.24
2018-12-31T06:52:02.833Z,78.79
2018-12-31T06:54:31.921Z,78.65
2018-12-31T06:57:01.363Z,78.31
2018-12-31T06:59:30.549Z,78.19
2018-12-31T07:01:59.839Z,78.34
2018-12-31T07:04:28.981Z,78.32
2018-12-31T07:06:59.453Z,78.09
2018-12-31T07:09:29.203Z,78.10
2018-12-31T07:11:58.357Z,78.28
2018-12-31T07:14:27.483Z,78.23
2018-12-31T07:16:56.654Z,77.89
2018-12-31T07:19:25.786Z,77.88
2018-12-31T07:21:55.188Z,77.63
2018-12-31T07:24:24.623Z,77.70
2018-12-31T07:26:53.834Z,78.00
2018-12-31T07:29:22.987Z,77.86
2018-12-31T07:31:52.909Z,77.76
2018-12-31T07:34:22.092Z,77.82
2018-12-31T07:36:51.549Z,77.77
2018-12-31T07:39:21.361Z,77.69
2018-12-31T07:41:50.470Z,77.88
2018-12-31T07:44:19.686Z,78.03
2018-12-31T07:46:49.147Z,77.69
2018-12-31T07:49:18.624Z,77.39
2018-12-31T07:51:47.812Z,77.33
2018-12-31T07:54:17.318Z,77.31
2018-12-31T07:56:46.435Z,77.39
2018-12-31T07:59:15.634Z,77.33
2018-12-31T08:01:45.062Z,77.12
2018-12-31T08:04:14.168Z,77.03
2018-12-31T08:06:43.404Z,76.97
2018-12-31T08:09:12.666Z,76.84
2018-12-31T08:11:41.822Z,76.85
2018-12-31T08:14:11.196Z,76.62
2018-12-31T08:16:40.333Z,76.47
2018-12-31T08:19:09.560Z,76.51
2018-12-31T08:21:39.012Z,76.38
2018-12-31T08:24:08.758Z,76.57
2018-12-31T08:26:37.987Z,76.06
2018-12-31T08:29:07.530Z,75.65
2018-12-31T08:31:37.015Z,75.25
2018-12-31T08:34:06.457Z,75.60
2018-12-31T08:36:35.583Z,75.20
2018-12-31T08:39:07.714Z,75.03
2018-12-31T08:41:36.984Z,75.23
2018-12-31T08:44:06.119Z,74.78
2018-12-31T08:46:35.254Z,74.23
2018-12-31T08:49:05.538Z,74.48
2018-12-31T08:51:34.658Z,74.34
2018-12-31T08:54:04.913Z,72.62
2018-12-31T08:56:34.101Z,73.70
2018-12-31T08:59:03.523Z,74.64
2018-12-31T09:01:32.682Z,74.07
2018-12-31T09:04:02.230Z,73.73
2018-12-31T09:06:31.385Z,73.81
2018-12-31T09:09:00.586Z,74.09
2018-12-31T09:11:30.123Z,74.09
2018-12-31T09:13:59.246Z,73.93
2018-12-31T09:16:28.414Z,73.73
2018-12-31T09:18:57.619Z,73.51
2018-12-31T09:21:27.246Z,73.53
2018-12-31T09:23:56.340Z,73.92
2018-12-31T09:26:25.856Z,73.38
2018-12-31T09:28:54.982Z,73.62
2018-12-31T09:31:24.513Z,73.36
2018-12-31T09:33:53.765Z,72.81
2018-12-31T09:36:22.907Z,72.86
2018-12-31T09:38:52.327Z,72.67
2018-12-31T09:41:21.473Z,73.20
2018-12-31T09:43:50.983Z,71.72
2018-12-31T09:46:20.402Z,72.29
2018-12-31T09:48:49.802Z,71.94
2018-12-31T09:51:19.248Z,71.31
2018-12-31T09:53:48.682Z,71.08
2018-12-31T09:56:17.816Z,71.67
2018-12-31T09:58:46.960Z,71.62
2018-12-31T10:01:16.436Z,71.26
2018-12-31T10:03:47.605Z,70.70
2018-12-31T10:06:16.640Z,72.12
2018-12-31T10:08:49.403Z,71.91
2018-12-31T10:11:16.683Z,71.99
2018-12-31T10:13:45.834Z,71.76
2018-12-31T10:16:15.250Z,71.19
2018-12-31T10:18:44.403Z,71.27
2018-12-31T10:21:13.602Z,71.22
2018-12-31T10:23:42.776Z,70.72
2018-12-31T10:26:11.930Z,71.05
2018-12-31T10:28:41.399Z,70.31
2018-12-31T10:31:10.529Z,69.90
2018-12-31T10:33:39.832Z,70.83
2018-12-31T10:36:09.298Z,69.65
2018-12-31T10:38:38.524Z,70.46
2018-12-31T10:41:07.937Z,69.37
2018-12-31T10:43:37.135Z,69.90
2018-12-31T10:46:07.151Z,69.10
2018-12-31T10:48:36.527Z,69.96
2018-12-31T10:51:08.016Z,70.00
2018-12-31T10:53:37.271Z,69.43
2018-12-31T10:56:06.757Z,69.35
2018-12-31T10:58:35.977Z,68.86
2018-12-31T11:01:05.578Z,68.67
2018-12-31T11:03:34.985Z,68.04
2018-12-31T11:06:05.452Z,67.28
2018-12-31T11:08:34.911Z,68.36
2018-12-31T11:11:05.324Z,66.61
2018-12-31T11:13:34.536Z,67.24
2018-12-31T11:16:04.822Z,67.98
2018-12-31T11:18:33.962Z,67.09
2018-12-31T11:21:03.124Z,66.62
2018-12-31T11:23:32.255Z,65.96
2018-12-31T11:26:01.392Z,65.48
2018-12-31T11:28:30.607Z,66.26
2018-12-31T11:30:59.818Z,66.79
2018-12-31T11:33:29.261Z,66.03
2018-12-31T11:35:58.859Z,66.05
2018-12-31T11:38:28.141Z,66.63
2018-12-31T11:40:57.556Z,65.76
2018-12-31T11:43:26.926Z,64.25
2018-12-31T11:45:56.361Z,65.25
2018-12-31T11:48:25.795Z,65.77
2018-12-31T11:50:54.963Z,66.47
2018-12-31T11:53:24.586Z,66.37
2018-12-31T11:55:53.957Z,67.60
2018-12-31T11:58:23.095Z,68.11
2018-12-31T12:00:52.365Z,68.00
2018-12-31T12:03:21.766Z,69.01
2018-12-31T12:05:51.272Z,69.00
2018-12-31T12:08:20.577Z,68.80
2018-12-31T12:10:49.742Z,69.53
2018-12-31T12:13:19.037Z,69.11
2018-12-31T12:15:48.527Z,69.32
2018-12-31T12:18:17.643Z,69.08
2018-12-31T12:20:46.979Z,69.00
2018-12-31T12:23:16.169Z,69.44
2018-12-31T12:25:45.293Z,69.25
2018-12-31T12:28:14.491Z,69.42
2018-12-31T12:30:43.633Z,69.62
2018-12-31T12:33:13.141Z,69.68
2018-12-31T12:35:42.349Z,69.42
2018-12-31T12:38:11.858Z,68.83
2018-12-31T12:40:40.992Z,68.67
2018-12-31T12:43:10.267Z,67.98
2018-12-31T12:45:39.392Z,67.48
2018-12-31T12:48:10.157Z,67.87
2018-12-31T12:50:40.034Z,67.63
2018-12-31T12:53:09.648Z,67.00
2018-12-31T12:55:38.758Z,66.19
2018-12-31T12:58:08.014Z,67.65
2018-12-31T13:00:37.139Z,67.04
2018-12-31T13:03:07.013Z,66.70
2018-12-31T13:05:36.180Z,66.92
2018-12-31T13:08:05.933Z,66.65
2018-12-31T13:10:35.196Z,66.63
2018-12-31T13:13:05.532Z,66.81
2018-12-31T13:15:34.740Z,67.15
2018-12-31T13:18:03.887Z,66.58
2018-12-31T13:20:33.088Z,66.69
2018-12-31T13:23:02.238Z,67.07
2018-12-31T13:25:31.749Z,66.55
2018-12-31T13:28:01.430Z,67.02
2018-12-31T13:30:30.540Z,66.91
2018-12-31T13:32:59.688Z,66.88
2018-12-31T13:35:28.933Z,66.73
2018-12-31T13:37:58.072Z,67.32
2018-12-31T13:40:27.481Z,67.63
2018-12-31T13:42:56.685Z,67.39
2018-12-31T13:45:25.835Z,67.46
2018-12-31T13:47:55.313Z,67.55
2018-12-31T13:50:24.515Z,67.11
2018-12-31T13:52:53.855Z,67.72
2018-12-31T13:55:23.055Z,68.28
2018-12-31T13:57:52.550Z,68.58
2018-12-31T14:00:21.711Z,68.12
2018-12-31T14:02:51.150Z,68.86
2018-12-31T14:05:20.872Z,68.52
2018-12-31T14:07:49.986Z,68.43
2018-12-31T14:10:19.317Z,68.71
2018-12-31T14:12:48.773Z,68.83
2018-12-31T14:15:18.454Z,69.19
2018-12-31T14:17:47.593Z,69.18
2018-12-31T14:20:16.797Z,69.56
2018-12-31T14:22:46.046Z,69.24
2018-12-31T14:25:15.587Z,69.04
2018-12-31T14:27:45.293Z,69.88
2018-12-31T14:30:14.403Z,70.38
2018-12-31T14:32:43.547Z,70.97
2018-12-31T14:35:15.535Z,71.24
2018-12-31T14:37:44.659Z,71.54
2018-12-31T14:40:13.802Z,70.48
2018-12-31T14:42:43.541Z,71.38
2018-12-31T14:45:12.654Z,70.94
2018-12-31T14:47:41.804Z,71.13
2018-12-31T14:50:11.108Z,71.43
2018-12-31T14:52:40.251Z,71.33
2018-12-31T14:55:09.912Z,71.67
2018-12-31T14:57:39.392Z,71.53
2018-12-31T15:00:12.035Z,71.57
2018-12-31T15:02:41.630Z,71.41
2018-12-31T15:05:10.782Z,71.03
2018-12-31T15:07:39.970Z,71.01
2018-12-31T15:10:09.118Z,70.80
2018-12-31T15:12:38.345Z,70.57
2018-12-31T15:15:08.595Z,70.60
2018-12-31T15:17:37.824Z,70.77
2018-12-31T15:20:09.619Z,70.68
2018-12-31T15:22:38.790Z,70.96
2018-12-31T15:25:07.926Z,71.40
2018-12-31T15:27:37.092Z,71.91
2018-12-31T15:30:08.974Z,71.28
2018-12-31T15:32:38.217Z,71.89
2018-12-31T15:35:07.708Z,71.41
2018-12-31T15:37:37.025Z,71.85
2018-12-31T15:40:07.974Z,71.53
2018-12-31T15:42:37.412Z,72.04
2018-12-31T15:45:07.801Z,71.98
2018-12-31T15:47:36.957Z,71.77
2018-12-31T15:50:12.849Z,71.74
2018-12-31T15:52:42.072Z,71.79
2018-12-31T15:55:11.393Z,71.63
2018-12-31T15:57:40.869Z,71.89
2018-12-31T16:00:10.635Z,71.71
2018-12-31T16:02:39.740Z,71.93
2018-12-31T16:05:09.699Z,71.60
2018-12-31T16:07:45.576Z,72.41
2018-12-31T16:10:10.055Z,71.99
2018-12-31T16:12:39.493Z,71.87
2018-12-31T16:15:09.200Z,71.55
2018-12-31T16:17:38.658Z,71.68
2018-12-31T16:20:07.895Z,71.33
2018-12-31T16:22:37.314Z,71.21
2018-12-31T16:25:06.484Z,71.20
2018-12-31T16:27:36.057Z,70.95
2018-12-31T16:30:08.081Z,70.72
2018-12-31T16:32:37.200Z,70.33
2018-12-31T16:35:06.458Z,69.44
2018-12-31T16:37:37.007Z,69.34
2018-12-31T16:40:06.820Z,69.09
2018-12-31T16:42:36.278Z,68.91
2018-12-31T16:45:07.483Z,69.34
2018-12-31T16:47:37.034Z,68.57
2018-12-31T16:50:08.086Z,68.65
2018-12-31T16:52:37.570Z,68.90
2018-12-31T16:55:06.765Z,68.79
2018-12-31T16:57:36.091Z,68.79
2018-12-31T17:00:07.370Z,69.01
2018-12-31T17:02:36.911Z,68.88
2018-12-31T17:05:07.177Z,69.11
2018-12-31T17:22:22.967Z,68.96
2018-12-31T17:37:29.147Z,68.93
2018-12-31T17:52:35.267Z,68.95
2018-12-31T18:07:41.087Z,69.46
2018-12-31T18:22:46.932Z,69.51
2018-12-31T18:37:52.692Z,69.61
2018-12-31T18:52:58.551Z,69.28
2018-12-31T19:08:05.529Z,69.43
2018-12-31T19:23:11.620Z,69.87
2018-12-31T19:38:17.370Z,69.12
2018-12-31T19:53:23.322Z,68.94
2018-12-31T20:08:29.588Z,69.57
2018-12-31T20:23:36.086Z,68.96
2018-12-31T20:38:44.275Z,69.37
2018-12-31T20:53:50.074Z,69.65
2018-12-31T21:08:56.105Z,69.87
2018-12-31T21:24:05.257Z,69.98
2018-12-31T21:39:11.416Z,69.62
2018-12-31T21:54:17.713Z,69.28
2018-12-31T22:09:23.810Z,70.92
2018-12-31T22:24:30.320Z,73.03
2018-12-31T22:39:36.318Z,73.99
2018-12-31T22:54:42.186Z,75.30
2018-12-31T23:09:48.455Z,76.09
2018-12-31T23:24:54.612Z,76.83
2018-12-31T23:40:00.375Z,77.52
2018-12-31T23:55:07.629Z,77.96
